sensor_id;sensor_type;location;lat;lon;timestamp;P1;durP1;ratioP1;P2;durP2;ratioP2
71204;SDS011;58935;54.498;18.544;2024-01-16T00:00:36;3.10;;;1.80;;
71204;SDS011;58935;54.498;18.544;2024-01-16T00:03:02;2.20;;;1.40;;
71204;SDS011;58935;54.498;18.544;2024-01-16T00:05:30;6.20;;;2.30;;
71204;SDS011;58935;54.498;18.544;2024-01-16T00:07:55;1.40;;;1.30;;
71204;SDS011;58935;54.498;18.544;2024-01-16T00:10:24;1.70;;;1.50;;
71204;SDS011;58935;54.498;18.544;2024-01-16T00:12:50;2.00;;;1.80;;
71204;SDS011;58935;54.498;18.544;2024-01-16T00:15:15;2.10;;;1.30;;
71204;SDS011;58935;54.498;18.544;2024-01-16T00:17:41;4.10;;;1.80;;
71204;SDS011;58935;54.498;18.544;2024-01-16T00:20:09;2.40;;;1.60;;
71204;SDS011;58935;54.498;18.544;2024-01-16T00:22:36;1.50;;;1.40;;
71204;SDS011;58935;54.498;18.544;2024-01-16T00:25:01;1.70;;;1.60;;
71204;SDS011;58935;54.498;18.544;2024-01-16T00:27:27;4.00;;;1.50;;
71204;SDS011;58935;54.498;18.544;2024-01-16T00:29:53;2.10;;;1.50;;
71204;SDS011;58935;54.498;18.544;2024-01-16T00:32:18;2.40;;;1.70;;
71204;SDS011;58935;54.498;18.544;2024-01-16T00:34:43;5.50;;;1.50;;
71204;SDS011;58935;54.498;18.544;2024-01-16T00:37:09;2.40;;;1.70;;
71204;SDS011;58935;54.498;18.544;2024-01-16T00:39:35;2.40;;;1.50;;
71204;SDS011;58935;54.498;18.544;2024-01-16T00:42:01;1.50;;;1.40;;
71204;SDS011;58935;54.498;18.544;2024-01-16T00:44:27;1.70;;;1.30;;
71204;SDS011;58935;54.498;18.544;2024-01-16T00:46:53;1.60;;;1.30;;
71204;SDS011;58935;54.498;18.544;2024-01-16T00:49:18;2.20;;;1.40;;
71204;SDS011;58935;54.498;18.544;2024-01-16T00:51:46;7.30;;;1.90;;
71204;SDS011;58935;54.498;18.544;2024-01-16T00:54:12;3.30;;;1.30;;
71204;SDS011;58935;54.498;18.544;2024-01-16T00:56:37;1.40;;;1.30;;
71204;SDS011;58935;54.498;18.544;2024-01-16T00:59:03;1.60;;;1.50;;
71204;SDS011;58935;54.498;18.544;2024-01-16T01:01:30;5.20;;;1.80;;
71204;SDS011;58935;54.498;18.544;2024-01-16T01:03:56;1.70;;;1.60;;
71204;SDS011;58935;54.498;18.544;2024-01-16T01:06:24;3.00;;;1.80;;
71204;SDS011;58935;54.498;18.544;2024-01-16T01:08:49;1.50;;;1.20;;
71204;SDS011;58935;54.498;18.544;2024-01-16T01:11:15;2.10;;;1.30;;
71204;SDS011;58935;54.498;18.544;2024-01-16T01:13:40;1.30;;;1.20;;
71204;SDS011;58935;54.498;18.544;2024-01-16T01:16:06;2.90;;;1.20;;
71204;SDS011;58935;54.498;18.544;2024-01-16T01:18:31;2.90;;;1.40;;
71204;SDS011;58935;54.498;18.544;2024-01-16T01:20:57;2.20;;;1.50;;
71204;SDS011;58935;54.498;18.544;2024-01-16T01:23:24;1.60;;;1.40;;
71204;SDS011;58935;54.498;18.544;2024-01-16T01:25:51;6.20;;;1.80;;
71204;SDS011;58935;54.498;18.544;2024-01-16T01:28:17;1.40;;;1.30;;
71204;SDS011;58935;54.498;18.544;2024-01-16T01:30:42;2.50;;;1.40;;
71204;SDS011;58935;54.498;18.544;2024-01-16T01:33:09;2.50;;;1.50;;
71204;SDS011;58935;54.498;18.544;2024-01-16T01:35:39;1.70;;;1.50;;
71204;SDS011;58935;54.498;18.544;2024-01-16T01:38:04;5.20;;;1.50;;
71204;SDS011;58935;54.498;18.544;2024-01-16T01:40:32;4.60;;;1.50;;
71204;SDS011;58935;54.498;18.544;2024-01-16T01:42:57;1.90;;;1.50;;
71204;SDS011;58935;54.498;18.544;2024-01-16T01:45:22;2.30;;;1.50;;
71204;SDS011;58935;54.498;18.544;2024-01-16T01:47:48;1.60;;;1.50;;
71204;SDS011;58935;54.498;18.544;2024-01-16T01:50:17;1.30;;;1.30;;
71204;SDS011;58935;54.498;18.544;2024-01-16T01:52:43;1.60;;;1.50;;
71204;SDS011;58935;54.498;18.544;2024-01-16T01:55:11;1.70;;;1.60;;
71204;SDS011;58935;54.498;18.544;2024-01-16T01:57:39;3.10;;;1.40;;
71204;SDS011;58935;54.498;18.544;2024-01-16T02:00:08;1.80;;;1.40;;
71204;SDS011;58935;54.498;18.544;2024-01-16T02:02:37;2.20;;;1.80;;
71204;SDS011;58935;54.498;18.544;2024-01-16T02:05:06;1.20;;;1.20;;
71204;SDS011;58935;54.498;18.544;2024-01-16T02:07:33;2.00;;;1.60;;
71204;SDS011;58935;54.498;18.544;2024-01-16T02:09:59;1.40;;;1.30;;
71204;SDS011;58935;54.498;18.544;2024-01-16T02:12:28;2.60;;;1.50;;
71204;SDS011;58935;54.498;18.544;2024-01-16T02:14:53;1.20;;;1.20;;
71204;SDS011;58935;54.498;18.544;2024-01-16T02:17:19;1.90;;;1.30;;
71204;SDS011;58935;54.498;18.544;2024-01-16T02:19:47;2.60;;;1.30;;
71204;SDS011;58935;54.498;18.544;2024-01-16T02:22:20;1.50;;;1.30;;
71204;SDS011;58935;54.498;18.544;2024-01-16T02:27:14;2.60;;;1.30;;
71204;SDS011;58935;54.498;18.544;2024-01-16T02:29:41;1.50;;;1.40;;
71204;SDS011;58935;54.498;18.544;2024-01-16T02:32:12;2.10;;;1.20;;
71204;SDS011;58935;54.498;18.544;2024-01-16T02:34:43;1.70;;;1.30;;
71204;SDS011;58935;54.498;18.544;2024-01-16T02:37:11;1.90;;;1.40;;
71204;SDS011;58935;54.498;18.544;2024-01-16T02:39:36;2.00;;;1.40;;
71204;SDS011;58935;54.498;18.544;2024-01-16T02:42:02;3.70;;;1.30;;
71204;SDS011;58935;54.498;18.544;2024-01-16T02:44:28;1.90;;;1.40;;
71204;SDS011;58935;54.498;18.544;2024-01-16T02:46:53;1.70;;;1.40;;
71204;SDS011;58935;54.498;18.544;2024-01-16T02:49:19;1.20;;;1.20;;
71204;SDS011;58935;54.498;18.544;2024-01-16T02:51:46;1.60;;;1.50;;
71204;SDS011;58935;54.498;18.544;2024-01-16T02:54:14;1.60;;;1.50;;
71204;SDS011;58935;54.498;18.544;2024-01-16T02:56:42;2.20;;;1.60;;
71204;SDS011;58935;54.498;18.544;2024-01-16T02:59:10;2.10;;;1.40;;
71204;SDS011;58935;54.498;18.544;2024-01-16T03:01:36;1.40;;;1.30;;
71204;SDS011;58935;54.498;18.544;2024-01-16T03:04:01;1.20;;;1.10;;
71204;SDS011;58935;54.498;18.544;2024-01-16T03:06:27;1.50;;;1.40;;
71204;SDS011;58935;54.498;18.544;2024-01-16T03:08:55;2.80;;;1.50;;
71204;SDS011;58935;54.498;18.544;2024-01-16T03:11:22;1.80;;;1.50;;
71204;SDS011;58935;54.498;18.544;2024-01-16T03:13:50;1.10;;;1.10;;
71204;SDS011;58935;54.498;18.544;2024-01-16T03:16:18;1.40;;;1.30;;
71204;SDS011;58935;54.498;18.544;2024-01-16T03:18:44;1.70;;;1.60;;
71204;SDS011;58935;54.498;18.544;2024-01-16T03:21:15;1.50;;;1.40;;
71204;SDS011;58935;54.498;18.544;2024-01-16T03:23:41;1.30;;;1.30;;
71204;SDS011;58935;54.498;18.544;2024-01-16T03:26:11;1.40;;;1.30;;
71204;SDS011;58935;54.498;18.544;2024-01-16T03:39:09;1.40;;;1.30;;
71204;SDS011;58935;54.498;18.544;2024-01-16T03:41:37;2.00;;;1.50;;
71204;SDS011;58935;54.498;18.544;2024-01-16T03:44:05;3.90;;;1.50;;
71204;SDS011;58935;54.498;18.544;2024-01-16T03:46:31;2.20;;;1.30;;
71204;SDS011;58935;54.498;18.544;2024-01-16T03:48:56;1.50;;;1.40;;
71204;SDS011;58935;54.498;18.544;2024-01-16T03:51:22;1.40;;;1.40;;
71204;SDS011;58935;54.498;18.544;2024-01-16T03:53:49;1.90;;;1.50;;
71204;SDS011;58935;54.498;18.544;2024-01-16T03:56:16;2.20;;;1.60;;
71204;SDS011;58935;54.498;18.544;2024-01-16T03:58:42;5.50;;;1.80;;
71204;SDS011;58935;54.498;18.544;2024-01-16T04:01:10;1.90;;;1.80;;
71204;SDS011;58935;54.498;18.544;2024-01-16T04:03:38;2.00;;;1.20;;
71204;SDS011;58935;54.498;18.544;2024-01-16T04:06:22;2.30;;;1.30;;
71204;SDS011;58935;54.498;18.544;2024-01-16T04:08:50;1.40;;;1.40;;
71204;SDS011;58935;54.498;18.544;2024-01-16T04:11:15;2.10;;;1.70;;
71204;SDS011;58935;54.498;18.544;2024-01-16T04:13:41;3.20;;;1.50;;
71204;SDS011;58935;54.498;18.544;2024-01-16T04:16:09;1.60;;;1.50;;
71204;SDS011;58935;54.498;18.544;2024-01-16T04:18:39;3.70;;;1.60;;
71204;SDS011;58935;54.498;18.544;2024-01-16T04:21:07;2.70;;;1.50;;
71204;SDS011;58935;54.498;18.544;2024-01-16T04:23:39;3.10;;;1.50;;
71204;SDS011;58935;54.498;18.544;2024-01-16T04:26:06;1.70;;;1.60;;
71204;SDS011;58935;54.498;18.544;2024-01-16T04:28:33;1.50;;;1.40;;
71204;SDS011;58935;54.498;18.544;2024-01-16T04:31:03;1.90;;;1.50;;
71204;SDS011;58935;54.498;18.544;2024-01-16T04:33:33;1.60;;;1.50;;
71204;SDS011;58935;54.498;18.544;2024-01-16T04:35:59;2.60;;;1.70;;
71204;SDS011;58935;54.498;18.544;2024-01-16T04:38:26;1.60;;;1.50;;
71204;SDS011;58935;54.498;18.544;2024-01-16T04:40:54;3.20;;;1.50;;
71204;SDS011;58935;54.498;18.544;2024-01-16T04:43:22;1.70;;;1.50;;
71204;SDS011;58935;54.498;18.544;2024-01-16T04:45:47;1.70;;;1.60;;
71204;SDS011;58935;54.498;18.544;2024-01-16T04:48:12;3.30;;;2.10;;
71204;SDS011;58935;54.498;18.544;2024-01-16T04:50:38;1.90;;;1.80;;
71204;SDS011;58935;54.498;18.544;2024-01-16T04:53:03;3.20;;;1.40;;
71204;SDS011;58935;54.498;18.544;2024-01-16T04:55:31;2.00;;;1.80;;
71204;SDS011;58935;54.498;18.544;2024-01-16T04:57:57;2.00;;;1.80;;
71204;SDS011;58935;54.498;18.544;2024-01-16T05:00:24;1.90;;;1.80;;
71204;SDS011;58935;54.498;18.544;2024-01-16T05:02:50;1.70;;;1.60;;
71204;SDS011;58935;54.498;18.544;2024-01-16T05:05:16;2.90;;;2.70;;
71204;SDS011;58935;54.498;18.544;2024-01-16T05:07:42;1.80;;;1.70;;
71204;SDS011;58935;54.498;18.544;2024-01-16T05:10:10;2.00;;;1.80;;
71204;SDS011;58935;54.498;18.544;2024-01-16T05:12:40;4.50;;;2.90;;
71204;SDS011;58935;54.498;18.544;2024-01-16T05:15:09;3.70;;;3.00;;
71204;SDS011;58935;54.498;18.544;2024-01-16T05:17:36;2.40;;;2.20;;
71204;SDS011;58935;54.498;18.544;2024-01-16T05:20:03;2.40;;;2.20;;
71204;SDS011;58935;54.498;18.544;2024-01-16T05:22:31;3.60;;;3.30;;
71204;SDS011;58935;54.498;18.544;2024-01-16T05:25:00;2.90;;;1.90;;
71204;SDS011;58935;54.498;18.544;2024-01-16T05:27:28;4.50;;;1.90;;
71204;SDS011;58935;54.498;18.544;2024-01-16T05:29:56;1.60;;;1.50;;
71204;SDS011;58935;54.498;18.544;2024-01-16T05:32:23;3.20;;;2.00;;
71204;SDS011;58935;54.498;18.544;2024-01-16T05:34:49;3.10;;;1.70;;
71204;SDS011;58935;54.498;18.544;2024-01-16T05:37:18;1.70;;;1.60;;
71204;SDS011;58935;54.498;18.544;2024-01-16T05:39:44;1.90;;;1.80;;
71204;SDS011;58935;54.498;18.544;2024-01-16T05:42:11;2.20;;;1.40;;
71204;SDS011;58935;54.498;18.544;2024-01-16T05:44:39;2.00;;;1.70;;
71204;SDS011;58935;54.498;18.544;2024-01-16T05:47:04;2.00;;;1.50;;
71204;SDS011;58935;54.498;18.544;2024-01-16T05:49:33;1.80;;;1.60;;
71204;SDS011;58935;54.498;18.544;2024-01-16T05:51:58;1.50;;;1.40;;
71204;SDS011;58935;54.498;18.544;2024-01-16T05:54:24;5.10;;;1.90;;
71204;SDS011;58935;54.498;18.544;2024-01-16T05:56:51;2.00;;;1.90;;
71204;SDS011;58935;54.498;18.544;2024-01-16T05:59:17;1.80;;;1.50;;
71204;SDS011;58935;54.498;18.544;2024-01-16T06:01:42;1.60;;;1.50;;
71204;SDS011;58935;54.498;18.544;2024-01-16T06:04:10;1.50;;;1.40;;
71204;SDS011;58935;54.498;18.544;2024-01-16T06:06:36;2.00;;;1.90;;
71204;SDS011;58935;54.498;18.544;2024-01-16T06:09:02;2.20;;;1.90;;
71204;SDS011;58935;54.498;18.544;2024-01-16T06:11:32;3.00;;;1.90;;
71204;SDS011;58935;54.498;18.544;2024-01-16T06:13:58;1.70;;;1.60;;
71204;SDS011;58935;54.498;18.544;2024-01-16T06:16:27;3.00;;;1.80;;
71204;SDS011;58935;54.498;18.544;2024-01-16T06:18:52;3.50;;;1.70;;
71204;SDS011;58935;54.498;18.544;2024-01-16T06:21:17;3.10;;;1.80;;
71204;SDS011;58935;54.498;18.544;2024-01-16T06:23:43;1.90;;;1.70;;
71204;SDS011;58935;54.498;18.544;2024-01-16T06:26:11;3.10;;;2.00;;
71204;SDS011;58935;54.498;18.544;2024-01-16T06:28:37;3.60;;;1.70;;
71204;SDS011;58935;54.498;18.544;2024-01-16T06:31:03;1.80;;;1.70;;
71204;SDS011;58935;54.498;18.544;2024-01-16T06:33:28;2.30;;;1.80;;
71204;SDS011;58935;54.498;18.544;2024-01-16T06:35:56;1.80;;;1.70;;
71204;SDS011;58935;54.498;18.544;2024-01-16T06:38:22;2.00;;;1.90;;
71204;SDS011;58935;54.498;18.544;2024-01-16T06:40:48;1.90;;;1.50;;
71204;SDS011;58935;54.498;18.544;2024-01-16T06:43:14;1.80;;;1.70;;
71204;SDS011;58935;54.498;18.544;2024-01-16T06:45:42;1.70;;;1.60;;
71204;SDS011;58935;54.498;18.544;2024-01-16T06:48:08;1.60;;;1.50;;
71204;SDS011;58935;54.498;18.544;2024-01-16T06:50:33;4.40;;;1.70;;
71204;SDS011;58935;54.498;18.544;2024-01-16T06:52:59;3.20;;;1.80;;
71204;SDS011;58935;54.498;18.544;2024-01-16T06:55:24;1.90;;;1.50;;
71204;SDS011;58935;54.498;18.544;2024-01-16T06:57:52;1.50;;;1.40;;
71204;SDS011;58935;54.498;18.544;2024-01-16T07:00:18;3.50;;;1.70;;
71204;SDS011;58935;54.498;18.544;2024-01-16T07:02:45;1.80;;;1.70;;
71204;SDS011;58935;54.498;18.544;2024-01-16T07:05:11;2.90;;;1.80;;
71204;SDS011;58935;54.498;18.544;2024-01-16T07:07:37;2.30;;;2.10;;
71204;SDS011;58935;54.498;18.544;2024-01-16T07:10:04;1.70;;;1.60;;
71204;SDS011;58935;54.498;18.544;2024-01-16T07:12:33;3.10;;;2.60;;
71204;SDS011;58935;54.498;18.544;2024-01-16T07:14:59;4.90;;;2.20;;
71204;SDS011;58935;54.498;18.544;2024-01-16T07:17:25;11.70;;;5.10;;
71204;SDS011;58935;54.498;18.544;2024-01-16T07:19:50;4.30;;;3.00;;
71204;SDS011;58935;54.498;18.544;2024-01-16T07:22:18;6.00;;;3.50;;
71204;SDS011;58935;54.498;18.544;2024-01-16T07:24:43;3.30;;;2.60;;
71204;SDS011;58935;54.498;18.544;2024-01-16T07:27:09;3.40;;;2.00;;
71204;SDS011;58935;54.498;18.544;2024-01-16T07:29:34;6.10;;;3.00;;
71204;SDS011;58935;54.498;18.544;2024-01-16T07:32:00;2.20;;;2.00;;
71204;SDS011;58935;54.498;18.544;2024-01-16T07:34:28;4.50;;;3.30;;
71204;SDS011;58935;54.498;18.544;2024-01-16T07:36:53;4.80;;;2.60;;
71204;SDS011;58935;54.498;18.544;2024-01-16T07:39:20;8.30;;;3.90;;
71204;SDS011;58935;54.498;18.544;2024-01-16T07:41:48;6.20;;;3.20;;
71204;SDS011;58935;54.498;18.544;2024-01-16T07:44:13;2.00;;;1.80;;
71204;SDS011;58935;54.498;18.544;2024-01-16T07:46:39;6.70;;;2.40;;
71204;SDS011;58935;54.498;18.544;2024-01-16T07:49:04;7.00;;;3.50;;
71204;SDS011;58935;54.498;18.544;2024-01-16T07:51:31;4.60;;;2.20;;
71204;SDS011;58935;54.498;18.544;2024-01-16T07:56:32;4.40;;;2.00;;
71204;SDS011;58935;54.498;18.544;2024-01-16T07:58:58;2.30;;;2.10;;
71204;SDS011;58935;54.498;18.544;2024-01-16T08:01:24;2.70;;;1.70;;
71204;SDS011;58935;54.498;18.544;2024-01-16T08:03:54;2.50;;;1.60;;
71204;SDS011;58935;54.498;18.544;2024-01-16T08:06:20;2.40;;;2.00;;
71204;SDS011;58935;54.498;18.544;2024-01-16T08:08:47;5.40;;;3.00;;
71204;SDS011;58935;54.498;18.544;2024-01-16T08:11:14;4.10;;;2.30;;
71204;SDS011;58935;54.498;18.544;2024-01-16T08:13:40;2.40;;;1.90;;
71204;SDS011;58935;54.498;18.544;2024-01-16T08:16:05;1.80;;;1.70;;
71204;SDS011;58935;54.498;18.544;2024-01-16T08:18:31;2.50;;;2.30;;
71204;SDS011;58935;54.498;18.544;2024-01-16T08:20:57;5.10;;;2.40;;
71204;SDS011;58935;54.498;18.544;2024-01-16T08:23:23;2.50;;;2.30;;
71204;SDS011;58935;54.498;18.544;2024-01-16T08:25:48;4.10;;;2.20;;
71204;SDS011;58935;54.498;18.544;2024-01-16T08:28:17;2.80;;;2.30;;
71204;SDS011;58935;54.498;18.544;2024-01-16T08:30:43;3.30;;;2.30;;
71204;SDS011;58935;54.498;18.544;2024-01-16T08:33:12;2.90;;;2.40;;
71204;SDS011;58935;54.498;18.544;2024-01-16T08:35:38;4.20;;;3.10;;
71204;SDS011;58935;54.498;18.544;2024-01-16T08:38:04;3.60;;;2.40;;
71204;SDS011;58935;54.498;18.544;2024-01-16T08:40:29;4.30;;;2.50;;
71204;SDS011;58935;54.498;18.544;2024-01-16T08:42:58;2.60;;;2.20;;
71204;SDS011;58935;54.498;18.544;2024-01-16T08:45:23;3.80;;;3.00;;
71204;SDS011;58935;54.498;18.544;2024-01-16T08:47:49;5.10;;;3.40;;
71204;SDS011;58935;54.498;18.544;2024-01-16T08:50:15;4.30;;;2.30;;
71204;SDS011;58935;54.498;18.544;2024-01-16T08:52:41;7.70;;;4.40;;
71204;SDS011;58935;54.498;18.544;2024-01-16T08:55:07;4.20;;;2.40;;
71204;SDS011;58935;54.498;18.544;2024-01-16T08:57:36;4.00;;;3.10;;
71204;SDS011;58935;54.498;18.544;2024-01-16T09:00:04;3.40;;;3.20;;
71204;SDS011;58935;54.498;18.544;2024-01-16T09:02:31;3.60;;;2.20;;
71204;SDS011;58935;54.498;18.544;2024-01-16T09:04:57;4.40;;;2.70;;
71204;SDS011;58935;54.498;18.544;2024-01-16T09:07:26;3.80;;;2.80;;
71204;SDS011;58935;54.498;18.544;2024-01-16T09:09:52;5.10;;;2.70;;
71204;SDS011;58935;54.498;18.544;2024-01-16T09:12:17;3.60;;;2.20;;
71204;SDS011;58935;54.498;18.544;2024-01-16T09:14:43;2.50;;;2.20;;
71204;SDS011;58935;54.498;18.544;2024-01-16T09:17:09;4.30;;;3.00;;
71204;SDS011;58935;54.498;18.544;2024-01-16T09:19:35;4.90;;;2.70;;
71204;SDS011;58935;54.498;18.544;2024-01-16T09:22:03;4.40;;;2.70;;
71204;SDS011;58935;54.498;18.544;2024-01-16T09:24:29;4.50;;;2.60;;
71204;SDS011;58935;54.498;18.544;2024-01-16T09:26:55;3.00;;;2.50;;
71204;SDS011;58935;54.498;18.544;2024-01-16T09:29:23;2.40;;;2.20;;
71204;SDS011;58935;54.498;18.544;2024-01-16T09:31:49;3.30;;;2.20;;
71204;SDS011;58935;54.498;18.544;2024-01-16T09:34:17;4.30;;;2.40;;
71204;SDS011;58935;54.498;18.544;2024-01-16T09:36:43;3.40;;;2.50;;
71204;SDS011;58935;54.498;18.544;2024-01-16T09:39:08;3.70;;;2.50;;
71204;SDS011;58935;54.498;18.544;2024-01-16T09:41:36;3.90;;;2.30;;
71204;SDS011;58935;54.498;18.544;2024-01-16T09:44:05;5.50;;;3.20;;
71204;SDS011;58935;54.498;18.544;2024-01-16T09:46:32;4.60;;;3.00;;
71204;SDS011;58935;54.498;18.544;2024-01-16T09:49:00;3.00;;;2.50;;
71204;SDS011;58935;54.498;18.544;2024-01-16T09:51:28;3.00;;;2.20;;
71204;SDS011;58935;54.498;18.544;2024-01-16T09:53:54;6.50;;;3.40;;
71204;SDS011;58935;54.498;18.544;2024-01-16T09:56:21;3.40;;;2.40;;
71204;SDS011;58935;54.498;18.544;2024-01-16T09:58:50;2.30;;;2.10;;
71204;SDS011;58935;54.498;18.544;2024-01-16T10:01:21;2.20;;;2.00;;
71204;SDS011;58935;54.498;18.544;2024-01-16T10:03:54;4.10;;;3.20;;
71204;SDS011;58935;54.498;18.544;2024-01-16T10:06:20;2.20;;;2.00;;
71204;SDS011;58935;54.498;18.544;2024-01-16T10:08:46;4.00;;;2.70;;
71204;SDS011;58935;54.498;18.544;2024-01-16T10:11:12;3.80;;;2.50;;
71204;SDS011;58935;54.498;18.544;2024-01-16T10:13:38;2.20;;;2.00;;
71204;SDS011;58935;54.498;18.544;2024-01-16T10:16:04;6.80;;;3.70;;
71204;SDS011;58935;54.498;18.544;2024-01-16T10:18:30;5.90;;;3.40;;
71204;SDS011;58935;54.498;18.544;2024-01-16T10:20:58;3.00;;;2.20;;
71204;SDS011;58935;54.498;18.544;2024-01-16T10:23:26;4.30;;;2.00;;
71204;SDS011;58935;54.498;18.544;2024-01-16T10:28:30;3.70;;;1.70;;
71204;SDS011;58935;54.498;18.544;2024-01-16T10:31:03;2.90;;;2.00;;
71204;SDS011;58935;54.498;18.544;2024-01-16T10:33:29;2.90;;;2.00;;
71204;SDS011;58935;54.498;18.544;2024-01-16T10:38:34;2.10;;;1.90;;
71204;SDS011;58935;54.498;18.544;2024-01-16T10:41:06;1.70;;;1.50;;
71204;SDS011;58935;54.498;18.544;2024-01-16T10:43:34;3.50;;;2.50;;
71204;SDS011;58935;54.498;18.544;2024-01-16T10:51:14;2.00;;;1.60;;
71204;SDS011;58935;54.498;18.544;2024-01-16T10:56:24;3.40;;;1.80;;
71204;SDS011;58935;54.498;18.544;2024-01-16T10:59:04;2.20;;;1.60;;
71204;SDS011;58935;54.498;18.544;2024-01-16T11:01:45;2.60;;;2.30;;
71204;SDS011;58935;54.498;18.544;2024-01-16T11:04:20;3.60;;;2.90;;
71204;SDS011;58935;54.498;18.544;2024-01-16T11:09:26;4.10;;;2.60;;
71204;SDS011;58935;54.498;18.544;2024-01-16T11:11:53;2.80;;;2.10;;
71204;SDS011;58935;54.498;18.544;2024-01-16T11:14:22;1.60;;;1.50;;
71204;SDS011;58935;54.498;18.544;2024-01-16T11:16:50;2.00;;;1.80;;
71204;SDS011;58935;54.498;18.544;2024-01-16T11:19:17;2.30;;;2.00;;
71204;SDS011;58935;54.498;18.544;2024-01-16T11:21:45;2.10;;;1.90;;
71204;SDS011;58935;54.498;18.544;2024-01-16T11:24:12;4.50;;;2.00;;
71204;SDS011;58935;54.498;18.544;2024-01-16T11:26:40;2.90;;;2.20;;
71204;SDS011;58935;54.498;18.544;2024-01-16T11:31:44;3.10;;;2.60;;
71204;SDS011;58935;54.498;18.544;2024-01-16T11:34:10;2.70;;;2.30;;
71204;SDS011;58935;54.498;18.544;2024-01-16T11:39:17;1.80;;;1.70;;
71204;SDS011;58935;54.498;18.544;2024-01-16T11:41:48;2.80;;;2.00;;
71204;SDS011;58935;54.498;18.544;2024-01-16T11:51:59;2.90;;;1.90;;
71204;SDS011;58935;54.498;18.544;2024-01-16T11:54:24;1.70;;;1.60;;
71204;SDS011;58935;54.498;18.544;2024-01-16T12:02:17;6.30;;;1.90;;
71204;SDS011;58935;54.498;18.544;2024-01-16T12:04:52;3.00;;;2.20;;
71204;SDS011;58935;54.498;18.544;2024-01-16T12:07:22;4.20;;;2.10;;
71204;SDS011;58935;54.498;18.544;2024-01-16T12:09:48;1.50;;;1.40;;
71204;SDS011;58935;54.498;18.544;2024-01-16T12:12:15;1.80;;;1.40;;
71204;SDS011;58935;54.498;18.544;2024-01-16T12:14:51;1.60;;;1.50;;
71204;SDS011;58935;54.498;18.544;2024-01-16T12:17:19;1.60;;;1.40;;
71204;SDS011;58935;54.498;18.544;2024-01-16T12:19:46;1.80;;;1.50;;
71204;SDS011;58935;54.498;18.544;2024-01-16T12:24:45;2.20;;;1.30;;
71204;SDS011;58935;54.498;18.544;2024-01-16T12:27:11;1.20;;;1.20;;
71204;SDS011;58935;54.498;18.544;2024-01-16T12:29:38;1.50;;;1.40;;
71204;SDS011;58935;54.498;18.544;2024-01-16T12:32:07;2.90;;;1.40;;
71204;SDS011;58935;54.498;18.544;2024-01-16T12:34:46;1.50;;;1.40;;
71204;SDS011;58935;54.498;18.544;2024-01-16T12:37:13;1.50;;;1.40;;
71204;SDS011;58935;54.498;18.544;2024-01-16T12:39:40;2.30;;;1.50;;
71204;SDS011;58935;54.498;18.544;2024-01-16T12:42:08;3.30;;;1.30;;
71204;SDS011;58935;54.498;18.544;2024-01-16T12:44:35;1.70;;;1.50;;
71204;SDS011;58935;54.498;18.544;2024-01-16T12:47:01;2.10;;;1.40;;
71204;SDS011;58935;54.498;18.544;2024-01-16T12:57:23;1.80;;;1.70;;
71204;SDS011;58935;54.498;18.544;2024-01-16T13:02:29;1.40;;;1.30;;
71204;SDS011;58935;54.498;18.544;2024-01-16T13:07:30;1.40;;;1.40;;
71204;SDS011;58935;54.498;18.544;2024-01-16T13:12:35;2.00;;;1.30;;
71204;SDS011;58935;54.498;18.544;2024-01-16T13:15:03;1.30;;;1.20;;
71204;SDS011;58935;54.498;18.544;2024-01-16T13:17:33;1.40;;;1.30;;
71204;SDS011;58935;54.498;18.544;2024-01-16T13:20:00;2.10;;;1.40;;
71204;SDS011;58935;54.498;18.544;2024-01-16T13:22:27;1.40;;;1.30;;
71204;SDS011;58935;54.498;18.544;2024-01-16T13:24:52;1.30;;;1.20;;
71204;SDS011;58935;54.498;18.544;2024-01-16T13:27:18;1.60;;;1.50;;
71204;SDS011;58935;54.498;18.544;2024-01-16T13:29:43;1.20;;;1.20;;
71204;SDS011;58935;54.498;18.544;2024-01-16T13:32:10;1.30;;;1.20;;
71204;SDS011;58935;54.498;18.544;2024-01-16T13:34:36;1.70;;;1.60;;
71204;SDS011;58935;54.498;18.544;2024-01-16T13:37:03;1.70;;;1.60;;
71204;SDS011;58935;54.498;18.544;2024-01-16T13:39:32;1.40;;;1.30;;
71204;SDS011;58935;54.498;18.544;2024-01-16T13:42:03;2.90;;;1.20;;
71204;SDS011;58935;54.498;18.544;2024-01-16T13:44:31;1.40;;;1.30;;
71204;SDS011;58935;54.498;18.544;2024-01-16T13:46:57;1.40;;;1.40;;
71204;SDS011;58935;54.498;18.544;2024-01-16T13:49:22;1.30;;;1.20;;
71204;SDS011;58935;54.498;18.544;2024-01-16T13:51:48;1.50;;;1.40;;
71204;SDS011;58935;54.498;18.544;2024-01-16T13:54:14;2.20;;;1.50;;
71204;SDS011;58935;54.498;18.544;2024-01-16T13:56:40;1.40;;;1.30;;
71204;SDS011;58935;54.498;18.544;2024-01-16T13:59:06;1.60;;;1.20;;
71204;SDS011;58935;54.498;18.544;2024-01-16T14:01:31;1.30;;;1.30;;
71204;SDS011;58935;54.498;18.544;2024-01-16T14:03:58;2.20;;;1.60;;
71204;SDS011;58935;54.498;18.544;2024-01-16T14:06:24;1.80;;;1.70;;
71204;SDS011;58935;54.498;18.544;2024-01-16T14:08:49;3.70;;;1.80;;
71204;SDS011;58935;54.498;18.544;2024-01-16T14:11:17;2.30;;;2.10;;
71204;SDS011;58935;54.498;18.544;2024-01-16T14:13:44;1.70;;;1.60;;
71204;SDS011;58935;54.498;18.544;2024-01-16T14:16:10;2.90;;;2.30;;
71204;SDS011;58935;54.498;18.544;2024-01-16T14:18:36;2.90;;;2.60;;
71204;SDS011;58935;54.498;18.544;2024-01-16T14:21:02;2.80;;;2.20;;
71204;SDS011;58935;54.498;18.544;2024-01-16T14:23:29;2.60;;;2.40;;
71204;SDS011;58935;54.498;18.544;2024-01-16T14:25:55;2.10;;;1.90;;
71204;SDS011;58935;54.498;18.544;2024-01-16T14:28:21;3.70;;;1.90;;
71204;SDS011;58935;54.498;18.544;2024-01-16T14:30:51;3.30;;;2.10;;
71204;SDS011;58935;54.498;18.544;2024-01-16T14:33:17;3.60;;;2.50;;
71204;SDS011;58935;54.498;18.544;2024-01-16T14:35:42;1.80;;;1.70;;
71204;SDS011;58935;54.498;18.544;2024-01-16T14:38:08;2.00;;;1.90;;
71204;SDS011;58935;54.498;18.544;2024-01-16T14:40:35;7.30;;;2.70;;
71204;SDS011;58935;54.498;18.544;2024-01-16T14:43:01;3.10;;;2.30;;
71204;SDS011;58935;54.498;18.544;2024-01-16T14:45:30;7.30;;;2.60;;
71204;SDS011;58935;54.498;18.544;2024-01-16T14:47:57;2.10;;;1.80;;
71204;SDS011;58935;54.498;18.544;2024-01-16T14:50:23;2.40;;;2.20;;
71204;SDS011;58935;54.498;18.544;2024-01-16T14:52:50;21.40;;;7.50;;
71204;SDS011;58935;54.498;18.544;2024-01-16T14:55:17;5.00;;;2.40;;
71204;SDS011;58935;54.498;18.544;2024-01-16T14:57:45;4.10;;;2.40;;
71204;SDS011;58935;54.498;18.544;2024-01-16T15:00:15;3.40;;;3.00;;
71204;SDS011;58935;54.498;18.544;2024-01-16T15:02:46;5.70;;;2.60;;
71204;SDS011;58935;54.498;18.544;2024-01-16T15:05:15;27.80;;;12.60;;
71204;SDS011;58935;54.498;18.544;2024-01-16T15:07:41;35.00;;;14.40;;
71204;SDS011;58935;54.498;18.544;2024-01-16T15:10:09;114.70;;;40.40;;
71204;SDS011;58935;54.498;18.544;2024-01-16T15:12:39;57.70;;;20.90;;
71204;SDS011;58935;54.498;18.544;2024-01-16T15:15:07;32.10;;;13.90;;
71204;SDS011;58935;54.498;18.544;2024-01-16T15:17:36;63.80;;;22.80;;
71204;SDS011;58935;54.498;18.544;2024-01-16T15:20:02;53.50;;;20.40;;
71204;SDS011;58935;54.498;18.544;2024-01-16T15:22:36;107.60;;;34.70;;
71204;SDS011;58935;54.498;18.544;2024-01-16T15:25:07;84.00;;;28.00;;
71204;SDS011;58935;54.498;18.544;2024-01-16T15:27:33;51.40;;;23.10;;
71204;SDS011;58935;54.498;18.544;2024-01-16T15:29:59;53.00;;;19.90;;
71204;SDS011;58935;54.498;18.544;2024-01-16T15:32:25;40.00;;;17.50;;
71204;SDS011;58935;54.498;18.544;2024-01-16T15:34:51;19.20;;;9.70;;
71204;SDS011;58935;54.498;18.544;2024-01-16T15:37:19;40.50;;;19.00;;
71204;SDS011;58935;54.498;18.544;2024-01-16T15:39:44;35.30;;;15.10;;